sensor_id;sensor_type;location;lat;lon;timestamp;pressure;altitude;pressure_sealevel;temperature;humidity
31761;BME280;18335;51.486;7.562;2023-11-19T00:00:56;99529.72;;;14.34;100.00
31761;BME280;18335;51.486;7.562;2023-11-19T00:03:22;99524.75;;;14.57;100.00
31761;BME280;18335;51.486;7.562;2023-11-19T00:05:49;99511.59;;;14.46;100.00
31761;BME280;18335;51.486;7.562;2023-11-19T00:08:17;99508.03;;;15.18;100.00
31761;BME280;18335;51.486;7.562;2023-11-19T00:10:44;99487.78;;;14.99;100.00
31761;BME280;18335;51.486;7.562;2023-11-19T00:13:12;99497.69;;;14.93;100.00
31761;BME280;18335;51.486;7.562;2023-11-19T00:15:38;99492.66;;;14.84;100.00
31761;BME280;18335;51.486;7.562;2023-11-19T00:18:05;99488.63;;;14.86;100.00
31761;BME280;18335;51.486;7.562;2023-11-19T00:20:32;99504.28;;;14.86;100.00
31761;BME280;18335;51.486;7.562;2023-11-19T00:22:58;99530.91;;;15.05;100.00
31761;BME280;18335;51.486;7.562;2023-11-19T00:25:29;99525.19;;;14.80;100.00
31761;BME280;18335;51.486;7.562;2023-11-19T00:27:56;99526.47;;;15.50;100.00
31761;BME280;18335;51.486;7.562;2023-11-19T00:30:23;99519.06;;;15.11;100.00
31761;BME280;18335;51.486;7.562;2023-11-19T00:32:49;99511.00;;;15.49;100.00
31761;BME280;18335;51.486;7.562;2023-11-19T00:35:16;99509.34;;;15.02;100.00
31761;BME280;18335;51.486;7.562;2023-11-19T00:37:43;99520.31;;;15.48;100.00
31761;BME280;18335;51.486;7.562;2023-11-19T00:40:11;99529.59;;;15.14;100.00
31761;BME280;18335;51.486;7.562;2023-11-19T00:42:39;99529.16;;;15.70;100.00
31761;BME280;18335;51.486;7.562;2023-11-19T00:45:06;99516.44;;;15.69;100.00
31761;BME280;18335;51.486;7.562;2023-11-19T00:47:35;99516.47;;;15.42;100.00
31761;BME280;18335;51.486;7.562;2023-11-19T00:50:02;99518.81;;;15.32;100.00
31761;BME280;18335;51.486;7.562;2023-11-19T00:52:30;99509.50;;;15.60;100.00
31761;BME280;18335;51.486;7.562;2023-11-19T00:54:57;99501.78;;;15.88;100.00
31761;BME280;18335;51.486;7.562;2023-11-19T00:57:23;99498.72;;;15.65;100.00
31761;BME280;18335;51.486;7.562;2023-11-19T00:59:53;99491.41;;;15.90;100.00
31761;BME280;18335;51.486;7.562;2023-11-19T01:02:20;99490.22;;;15.66;100.00
31761;BME280;18335;51.486;7.562;2023-11-19T01:04:46;99486.84;;;15.64;100.00
31761;BME280;18335;51.486;7.562;2023-11-19T01:07:13;99497.06;;;15.31;100.00
31761;BME280;18335;51.486;7.562;2023-11-19T01:09:41;99494.88;;;15.66;100.00
31761;BME280;18335;51.486;7.562;2023-11-19T01:12:08;99476.06;;;16.07;100.00
31761;BME280;18335;51.486;7.562;2023-11-19T01:14:35;99473.38;;;16.38;100.00
31761;BME280;18335;51.486;7.562;2023-11-19T01:17:04;99478.78;;;15.76;100.00
31761;BME280;18335;51.486;7.562;2023-11-19T01:19:31;99472.75;;;16.36;100.00
31761;BME280;18335;51.486;7.562;2023-11-19T01:21:58;99462.56;;;16.75;100.00
31761;BME280;18335;51.486;7.562;2023-11-19T01:24:24;99468.81;;;16.19;100.00
31761;BME280;18335;51.486;7.562;2023-11-19T01:26:54;99472.50;;;15.56;100.00
31761;BME280;18335;51.486;7.562;2023-11-19T01:29:20;99476.72;;;16.09;100.00
31761;BME280;18335;51.486;7.562;2023-11-19T01:31:47;99482.50;;;15.94;100.00
31761;BME280;18335;51.486;7.562;2023-11-19T01:34:16;99489.84;;;15.23;100.00
31761;BME280;18335;51.486;7.562;2023-11-19T01:36:42;99487.09;;;15.43;100.00
31761;BME280;18335;51.486;7.562;2023-11-19T01:39:11;99488.47;;;15.85;100.00
31761;BME280;18335;51.486;7.562;2023-11-19T01:41:41;99498.59;;;15.97;100.00
31761;BME280;18335;51.486;7.562;2023-11-19T01:44:09;99489.81;;;16.14;100.00
31761;BME280;18335;51.486;7.562;2023-11-19T01:46:37;99483.44;;;15.69;100.00
31761;BME280;18335;51.486;7.562;2023-11-19T01:49:05;99475.34;;;15.87;100.00
31761;BME280;18335;51.486;7.562;2023-11-19T01:51:33;99466.59;;;15.32;100.00
31761;BME280;18335;51.486;7.562;2023-11-19T01:54:01;99469.63;;;14.98;100.00
31761;BME280;18335;51.486;7.562;2023-11-19T01:56:28;99456.50;;;14.67;100.00
31761;BME280;18335;51.486;7.562;2023-11-19T01:58:56;99469.38;;;15.13;100.00
31761;BME280;18335;51.486;7.562;2023-11-19T02:01:24;99476.38;;;15.02;100.00
31761;BME280;18335;51.486;7.562;2023-11-19T02:03:51;99474.88;;;15.13;100.00
31761;BME280;18335;51.486;7.562;2023-11-19T02:06:18;99463.81;;;15.39;100.00
31761;BME280;18335;51.486;7.562;2023-11-19T02:08:47;99453.75;;;15.13;100.00
31761;BME280;18335;51.486;7.562;2023-11-19T02:11:13;99445.97;;;15.74;100.00
31761;BME280;18335;51.486;7.562;2023-11-19T02:13:40;99450.50;;;15.56;100.00
31761;BME280;18335;51.486;7.562;2023-11-19T02:16:09;99443.78;;;15.25;100.00
31761;BME280;18335;51.486;7.562;2023-11-19T02:18:36;99455.81;;;15.31;100.00
31761;BME280;18335;51.486;7.562;2023-11-19T02:21:04;99461.78;;;15.08;100.00
31761;BME280;18335;51.486;7.562;2023-11-19T02:23:32;99450.56;;;15.16;100.00
31761;BME280;18335;51.486;7.562;2023-11-19T02:26:09;99460.28;;;15.12;100.00
31761;BME280;18335;51.486;7.562;2023-11-19T02:28:41;99448.56;;;15.56;100.00
31761;BME280;18335;51.486;7.562;2023-11-19T02:31:08;99455.41;;;15.27;100.00
31761;BME280;18335;51.486;7.562;2023-11-19T02:33:35;99448.91;;;15.86;100.00
31761;BME280;18335;51.486;7.562;2023-11-19T02:36:03;99446.31;;;15.20;100.00
31761;BME280;18335;51.486;7.562;2023-11-19T02:38:30;99417.59;;;15.10;100.00
31761;BME280;18335;51.486;7.562;2023-11-19T02:40:57;99419.19;;;15.57;100.00
31761;BME280;18335;51.486;7.562;2023-11-19T02:43:24;99433.41;;;15.27;100.00
31761;BME280;18335;51.486;7.562;2023-11-19T02:45:53;99428.00;;;15.72;100.00
31761;BME280;18335;51.486;7.562;2023-11-19T02:48:21;99426.88;;;15.28;100.00
31761;BME280;18335;51.486;7.562;2023-11-19T02:50:48;99418.44;;;15.81;100.00
31761;BME280;18335;51.486;7.562;2023-11-19T02:53:14;99413.16;;;15.86;100.00
31761;BME280;18335;51.486;7.562;2023-11-19T02:55:41;99406.50;;;16.00;100.00
31761;BME280;18335;51.486;7.562;2023-11-19T02:58:14;99417.94;;;15.53;100.00
31761;BME280;18335;51.486;7.562;2023-11-19T03:00:49;99413.13;;;16.80;100.00
31761;BME280;18335;51.486;7.562;2023-11-19T03:03:24;99406.84;;;15.72;100.00
31761;BME280;18335;51.486;7.562;2023-11-19T03:05:54;99402.91;;;15.55;100.00
31761;BME280;18335;51.486;7.562;2023-11-19T03:08:21;99399.91;;;16.01;100.00
31761;BME280;18335;51.486;7.562;2023-11-19T03:10:48;99395.81;;;15.79;100.00
31761;BME280;18335;51.486;7.562;2023-11-19T03:13:15;99404.81;;;15.55;100.00
31761;BME280;18335;51.486;7.562;2023-11-19T03:15:42;99401.03;;;15.42;100.00
31761;BME280;18335;51.486;7.562;2023-11-19T03:18:09;99391.69;;;15.57;100.00
31761;BME280;18335;51.486;7.562;2023-11-19T03:20:37;99403.59;;;16.51;100.00
31761;BME280;18335;51.486;7.562;2023-11-19T03:23:04;99392.38;;;15.83;100.00
31761;BME280;18335;51.486;7.562;2023-11-19T03:25:31;99392.53;;;15.95;100.00
31761;BME280;18335;51.486;7.562;2023-11-19T03:28:00;99404.03;;;15.34;100.00
31761;BME280;18335;51.486;7.562;2023-11-19T03:30:32;99398.72;;;15.26;100.00
31761;BME280;18335;51.486;7.562;2023-11-19T03:32:59;99376.38;;;15.74;100.00
31761;BME280;18335;51.486;7.562;2023-11-19T03:35:26;99381.59;;;15.88;100.00
31761;BME280;18335;51.486;7.562;2023-11-19T03:37:57;99374.06;;;16.09;100.00
31761;BME280;18335;51.486;7.562;2023-11-19T03:40:24;99387.84;;;16.33;100.00
31761;BME280;18335;51.486;7.562;2023-11-19T03:42:52;99380.38;;;16.40;100.00
31761;BME280;18335;51.486;7.562;2023-11-19T03:45:19;99389.16;;;15.93;100.00
31761;BME280;18335;51.486;7.562;2023-11-19T03:47:46;99382.25;;;15.77;100.00
31761;BME280;18335;51.486;7.562;2023-11-19T03:50:15;99390.22;;;15.92;100.00
31761;BME280;18335;51.486;7.562;2023-11-19T03:52:42;99393.28;;;15.77;100.00
31761;BME280;18335;51.486;7.562;2023-11-19T03:55:10;99399.16;;;15.87;100.00
31761;BME280;18335;51.486;7.562;2023-11-19T03:57:38;99392.16;;;16.54;100.00
31761;BME280;18335;51.486;7.562;2023-11-19T04:00:06;99402.06;;;15.55;100.00
31761;BME280;18335;51.486;7.562;2023-11-19T04:02:38;99401.78;;;16.07;100.00
31761;BME280;18335;51.486;7.562;2023-11-19T04:05:06;99415.91;;;15.15;100.00
31761;BME280;18335;51.486;7.562;2023-11-19T04:07:33;99427.63;;;16.06;100.00
31761;BME280;18335;51.486;7.562;2023-11-19T04:10:00;99407.13;;;15.58;100.00
31761;BME280;18335;51.486;7.562;2023-11-19T04:12:31;99403.03;;;15.80;100.00
31761;BME280;18335;51.486;7.562;2023-11-19T04:14:57;99401.88;;;16.25;100.00
31761;BME280;18335;51.486;7.562;2023-11-19T04:17:24;99415.00;;;15.41;100.00
31761;BME280;18335;51.486;7.562;2023-11-19T04:19:51;99414.25;;;15.72;100.00
31761;BME280;18335;51.486;7.562;2023-11-19T04:22:18;99404.78;;;17.11;100.00
31761;BME280;18335;51.486;7.562;2023-11-19T04:24:44;99417.03;;;17.51;100.00
31761;BME280;18335;51.486;7.562;2023-11-19T04:27:11;99402.06;;;17.04;100.00
31761;BME280;18335;51.486;7.562;2023-11-19T04:29:40;99411.41;;;16.79;100.00
31761;BME280;18335;51.486;7.562;2023-11-19T04:32:07;99403.47;;;16.39;100.00
31761;BME280;18335;51.486;7.562;2023-11-19T04:34:34;99401.09;;;17.17;100.00
31761;BME280;18335;51.486;7.562;2023-11-19T04:37:03;99398.63;;;17.27;100.00
31761;BME280;18335;51.486;7.562;2023-11-19T04:39:30;99399.63;;;16.96;100.00
31761;BME280;18335;51.486;7.562;2023-11-19T04:41:56;99408.06;;;16.21;100.00
31761;BME280;18335;51.486;7.562;2023-11-19T04:44:23;99401.44;;;16.59;100.00
31761;BME280;18335;51.486;7.562;2023-11-19T04:46:51;99403.84;;;16.99;100.00
31761;BME280;18335;51.486;7.562;2023-11-19T04:49:18;99406.47;;;17.30;100.00
31761;BME280;18335;51.486;7.562;2023-11-19T04:51:45;99411.91;;;16.94;100.00
31761;BME280;18335;51.486;7.562;2023-11-19T04:54:13;99412.19;;;16.36;100.00
31761;BME280;18335;51.486;7.562;2023-11-19T04:56:40;99419.91;;;17.02;100.00
31761;BME280;18335;51.486;7.562;2023-11-19T04:59:07;99405.06;;;16.22;100.00
31761;BME280;18335;51.486;7.562;2023-11-19T05:01:34;99411.16;;;16.87;100.00
31761;BME280;18335;51.486;7.562;2023-11-19T05:04:02;99412.75;;;16.45;100.00
31761;BME280;18335;51.486;7.562;2023-11-19T05:06:30;99414.56;;;17.07;100.00
31761;BME280;18335;51.486;7.562;2023-11-19T05:08:58;99408.53;;;16.42;100.00
31761;BME280;18335;51.486;7.562;2023-11-19T05:11:28;99411.41;;;17.03;100.00
31761;BME280;18335;51.486;7.562;2023-11-19T05:13:55;99414.63;;;16.76;100.00
31761;BME280;18335;51.486;7.562;2023-11-19T05:16:23;99423.47;;;16.84;100.00
31761;BME280;18335;51.486;7.562;2023-11-19T05:18:50;99411.56;;;17.08;100.00
31761;BME280;18335;51.486;7.562;2023-11-19T05:21:18;99405.69;;;16.55;100.00
31761;BME280;18335;51.486;7.562;2023-11-19T05:23:45;99416.03;;;16.85;100.00
31761;BME280;18335;51.486;7.562;2023-11-19T05:26:17;99418.78;;;16.29;100.00
31761;BME280;18335;51.486;7.562;2023-11-19T05:28:44;99432.81;;;16.52;100.00
31761;BME280;18335;51.486;7.562;2023-11-19T05:31:11;99419.81;;;16.03;100.00
31761;BME280;18335;51.486;7.562;2023-11-19T05:33:37;99414.47;;;16.08;100.00
31761;BME280;18335;51.486;7.562;2023-11-19T05:36:05;99417.28;;;16.33;100.00
31761;BME280;18335;51.486;7.562;2023-11-19T05:38:35;99428.34;;;16.26;100.00
31761;BME280;18335;51.486;7.562;2023-11-19T05:41:01;99423.78;;;16.45;100.00
31761;BME280;18335;51.486;7.562;2023-11-19T05:43:28;99429.72;;;16.04;100.00
31761;BME280;18335;51.486;7.562;2023-11-19T05:45:55;99430.28;;;16.19;100.00
31761;BME280;18335;51.486;7.562;2023-11-19T05:48:22;99435.41;;;15.71;100.00
31761;BME280;18335;51.486;7.562;2023-11-19T05:50:49;99421.81;;;16.21;100.00
31761;BME280;18335;51.486;7.562;2023-11-19T05:53:16;99426.56;;;16.38;100.00
31761;BME280;18335;51.486;7.562;2023-11-19T05:55:44;99431.44;;;16.05;100.00
31761;BME280;18335;51.486;7.562;2023-11-19T05:58:14;99422.91;;;16.44;100.00
31761;BME280;18335;51.486;7.562;2023-11-19T06:00:41;99418.34;;;16.00;100.00
31761;BME280;18335;51.486;7.562;2023-11-19T06:03:08;99417.72;;;15.54;100.00
31761;BME280;18335;51.486;7.562;2023-11-19T06:05:35;99425.53;;;15.57;100.00
31761;BME280;18335;51.486;7.562;2023-11-19T06:08:01;99430.72;;;15.01;100.00
31761;BME280;18335;51.486;7.562;2023-11-19T06:10:28;99415.03;;;15.21;100.00
31761;BME280;18335;51.486;7.562;2023-11-19T06:12:59;99424.41;;;14.81;100.00
31761;BME280;18335;51.486;7.562;2023-11-19T06:15:26;99423.50;;;15.20;100.00
31761;BME280;18335;51.486;7.562;2023-11-19T06:17:53;99411.06;;;15.75;100.00
31761;BME280;18335;51.486;7.562;2023-11-19T06:20:20;99432.81;;;15.12;100.00
31761;BME280;18335;51.486;7.562;2023-11-19T06:22:47;99425.53;;;15.57;100.00
31761;BME280;18335;51.486;7.562;2023-11-19T06:25:14;99444.88;;;14.98;100.00
31761;BME280;18335;51.486;7.562;2023-11-19T06:27:41;99434.78;;;14.66;100.00
31761;BME280;18335;51.486;7.562;2023-11-19T06:30:10;99440.25;;;14.66;100.00
31761;BME280;18335;51.486;7.562;2023-11-19T06:32:37;99447.22;;;15.01;100.00
31761;BME280;18335;51.486;7.562;2023-11-19T06:35:05;99438.53;;;14.84;100.00
31761;BME280;18335;51.486;7.562;2023-11-19T06:37:32;99448.03;;;14.43;100.00
31761;BME280;18335;51.486;7.562;2023-11-19T06:39:59;99454.44;;;14.69;100.00
31761;BME280;18335;51.486;7.562;2023-11-19T06:42:25;99447.66;;;14.59;100.00
31761;BME280;18335;51.486;7.562;2023-11-19T06:44:53;99453.75;;;14.61;100.00
31761;BME280;18335;51.486;7.562;2023-11-19T06:47:21;99451.88;;;14.48;100.00
31761;BME280;18335;51.486;7.562;2023-11-19T06:49:47;99445.53;;;14.74;100.00
31761;BME280;18335;51.486;7.562;2023-11-19T06:52:16;99427.06;;;15.91;100.00
31761;BME280;18335;51.486;7.562;2023-11-19T06:54:42;99447.97;;;15.54;100.00
31761;BME280;18335;51.486;7.562;2023-11-19T06:57:11;99464.06;;;15.24;100.00
31761;BME280;18335;51.486;7.562;2023-11-19T06:59:37;99462.84;;;15.14;100.00
31761;BME280;18335;51.486;7.562;2023-11-19T07:02:05;99471.72;;;15.09;100.00
31761;BME280;18335;51.486;7.562;2023-11-19T07:04:33;99476.34;;;15.28;100.00
31761;BME280;18335;51.486;7.562;2023-11-19T07:06:59;99478.03;;;14.37;100.00
31761;BME280;18335;51.486;7.562;2023-11-19T07:09:29;99479.75;;;14.91;100.00
31761;BME280;18335;51.486;7.562;2023-11-19T07:11:56;99491.78;;;14.57;100.00
31761;BME280;18335;51.486;7.562;2023-11-19T07:14:25;99487.94;;;15.30;100.00
31761;BME280;18335;51.486;7.562;2023-11-19T07:16:52;99501.50;;;14.73;100.00
31761;BME280;18335;51.486;7.562;2023-11-19T07:19:19;99497.72;;;14.87;100.00
31761;BME280;18335;51.486;7.562;2023-11-19T07:21:47;99484.88;;;16.22;100.00
31761;BME280;18335;51.486;7.562;2023-11-19T07:24:14;99494.56;;;14.90;100.00
31761;BME280;18335;51.486;7.562;2023-11-19T07:26:43;99490.28;;;15.40;100.00
31761;BME280;18335;51.486;7.562;2023-11-19T07:29:10;99490.97;;;14.83;100.00
31761;BME280;18335;51.486;7.562;2023-11-19T07:31:36;99495.09;;;15.44;100.00
31761;BME280;18335;51.486;7.562;2023-11-19T07:34:03;99493.03;;;15.20;100.00
31761;BME280;18335;51.486;7.562;2023-11-19T07:36:32;99498.53;;;15.40;100.00
31761;BME280;18335;51.486;7.562;2023-11-19T07:39:03;99494.56;;;14.83;100.00
31761;BME280;18335;51.486;7.562;2023-11-19T07:41:30;99500.44;;;14.48;100.00
31761;BME280;18335;51.486;7.562;2023-11-19T07:43:57;99505.94;;;15.00;100.00
31761;BME280;18335;51.486;7.562;2023-11-19T07:46:24;99506.28;;;15.76;100.00
31761;BME280;18335;51.486;7.562;2023-11-19T07:48:52;99516.09;;;14.80;100.00
31761;BME280;18335;51.486;7.562;2023-11-19T07:51:18;99493.09;;;15.91;100.00
31761;BME280;18335;51.486;7.562;2023-11-19T07:53:45;99498.22;;;16.25;100.00
31761;BME280;18335;51.486;7.562;2023-11-19T07:56:13;99511.50;;;16.35;100.00
31761;BME280;18335;51.486;7.562;2023-11-19T07:58:41;99515.97;;;15.85;100.00
31761;BME280;18335;51.486;7.562;2023-11-19T08:01:07;99526.63;;;16.19;100.00
31761;BME280;18335;51.486;7.562;2023-11-19T08:03:34;99533.19;;;15.61;100.00
31761;BME280;18335;51.486;7.562;2023-11-19T08:06:03;99526.03;;;16.04;100.00
31761;BME280;18335;51.486;7.562;2023-11-19T08:08:30;99532.22;;;15.99;100.00
31761;BME280;18335;51.486;7.562;2023-11-19T08:10:58;99534.28;;;16.11;100.00
31761;BME280;18335;51.486;7.562;2023-11-19T08:13:27;99508.13;;;16.33;100.00
31761;BME280;18335;51.486;7.562;2023-11-19T08:15:53;99529.94;;;16.34;100.00
31761;BME280;18335;51.486;7.562;2023-11-19T08:18:20;99537.31;;;15.89;100.00
31761;BME280;18335;51.486;7.562;2023-11-19T08:20:48;99524.75;;;16.57;100.00
31761;BME280;18335;51.486;7.562;2023-11-19T08:23:18;99521.16;;;16.50;100.00
31761;BME280;18335;51.486;7.562;2023-11-19T08:25:45;99533.91;;;16.45;100.00
31761;BME280;18335;51.486;7.562;2023-11-19T08:28:12;99547.59;;;16.14;100.00
31761;BME280;18335;51.486;7.562;2023-11-19T08:30:40;99542.13;;;16.07;100.00
31761;BME280;18335;51.486;7.562;2023-11-19T08:33:07;99545.31;;;16.04;100.00
31761;BME280;18335;51.486;7.562;2023-11-19T08:35:33;99552.38;;;15.87;100.00
31761;BME280;18335;51.486;7.562;2023-11-19T08:38:00;99550.38;;;16.58;100.00
31761;BME280;18335;51.486;7.562;2023-11-19T08:40:27;99563.88;;;15.58;100.00
31761;BME280;18335;51.486;7.562;2023-11-19T08:42:55;99549.56;;;16.57;100.00
31761;BME280;18335;51.486;7.562;2023-11-19T08:45:22;99553.66;;;15.84;100.00
31761;BME280;18335;51.486;7.562;2023-11-19T08:47:50;99545.88;;;16.19;100.00
31761;BME280;18335;51.486;7.562;2023-11-19T08:50:17;99558.28;;;15.97;100.00
31761;BME280;18335;51.486;7.562;2023-11-19T08:52:44;99549.38;;;15.95;100.00
31761;BME280;18335;51.486;7.562;2023-11-19T08:55:12;99558.38;;;15.58;100.00
31761;BME280;18335;51.486;7.562;2023-11-19T08:57:39;99540.88;;;16.03;100.00
31761;BME280;18335;51.486;7.562;2023-11-19T09:00:07;99561.72;;;15.73;100.00
31761;BME280;18335;51.486;7.562;2023-11-19T09:02:34;99561.59;;;16.19;100.00
31761;BME280;18335;51.486;7.562;2023-11-19T09:05:04;99552.66;;;16.23;100.00
31761;BME280;18335;51.486;7.562;2023-11-19T09:07:32;99544.91;;;16.51;100.00
31761;BME280;18335;51.486;7.562;2023-11-19T09:09:59;99546.13;;;16.62;100.00
31761;BME280;18335;51.486;7.562;2023-11-19T09:12:26;99553.53;;;16.17;100.00
31761;BME280;18335;51.486;7.562;2023-11-19T09:14:53;99545.81;;;16.39;100.00
31761;BME280;18335;51.486;7.562;2023-11-19T09:17:22;99550.94;;;16.29;100.00
31761;BME280;18335;51.486;7.562;2023-11-19T09:19:49;99555.13;;;16.76;100.00
31761;BME280;18335;51.486;7.562;2023-11-19T09:22:17;99559.56;;;15.94;100.00
31761;BME280;18335;51.486;7.562;2023-11-19T09:24:44;99557.09;;;16.24;100.00
31761;BME280;18335;51.486;7.562;2023-11-19T09:27:11;99562.03;;;16.16;100.00
31761;BME280;18335;51.486;7.562;2023-11-19T09:29:37;99563.78;;;15.97;100.00
31761;BME280;18335;51.486;7.562;2023-11-19T09:32:05;99565.66;;;16.47;100.00
31761;BME280;18335;51.486;7.562;2023-11-19T09:34:33;99550.63;;;15.99;100.00
31761;BME280;18335;51.486;7.562;2023-11-19T09:36:59;99550.19;;;16.46;100.00
31761;BME280;18335;51.486;7.562;2023-11-19T09:39:28;99542.50;;;16.17;100.00
31761;BME280;18335;51.486;7.562;2023-11-19T09:41:55;99546.84;;;15.87;100.00
31761;BME280;18335;51.486;7.562;2023-11-19T09:44:26;99565.47;;;15.91;100.00
31761;BME280;18335;51.486;7.562;2023-11-19T09:46:53;99558.00;;;16.63;100.00
31761;BME280;18335;51.486;7.562;2023-11-19T09:49:21;99550.66;;;16.81;100.00
31761;BME280;18335;51.486;7.562;2023-11-19T09:51:50;99543.88;;;16.84;100.00
31761;BME280;18335;51.486;7.562;2023-11-19T09:54:17;99560.16;;;16.47;100.00
31761;BME280;18335;51.486;7.562;2023-11-19T09:56:46;99548.63;;;16.26;100.00
31761;BME280;18335;51.486;7.562;2023-11-19T09:59:13;99543.53;;;16.67;100.00
31761;BME280;18335;51.486;7.562;2023-11-19T10:01:41;99542.91;;;16.27;100.00
31761;BME280;18335;51.486;7.562;2023-11-19T10:04:09;99547.59;;;16.20;100.00
31761;BME280;18335;51.486;7.562;2023-11-19T10:06:36;99556.28;;;16.17;100.00
31761;BME280;18335;51.486;7.562;2023-11-19T10:09:03;99541.34;;;16.76;100.00
31761;BME280;18335;51.486;7.562;2023-11-19T10:11:30;99547.41;;;16.59;100.00
31761;BME280;18335;51.486;7.562;2023-11-19T10:13:59;99551.91;;;16.85;100.00
31761;BME280;18335;51.486;7.562;2023-11-19T10:16:28;99550.59;;;16.88;100.00
31761;BME280;18335;51.486;7.562;2023-11-19T10:18:57;99545.16;;;16.81;100.00
31761;BME280;18335;51.486;7.562;2023-11-19T10:21:24;99546.97;;;17.43;100.00
31761;BME280;18335;51.486;7.562;2023-11-19T10:23:54;99532.38;;;17.36;100.00
31761;BME280;18335;51.486;7.562;2023-11-19T10:26:26;99531.44;;;17.49;100.00
31761;BME280;18335;51.486;7.562;2023-11-19T10:28:55;99542.91;;;17.21;100.00
31761;BME280;18335;51.486;7.562;2023-11-19T10:31:23;99541.75;;;17.53;100.00
31761;BME280;18335;51.486;7.562;2023-11-19T10:33:52;99532.28;;;17.25;100.00
31761;BME280;18335;51.486;7.562;2023-11-19T10:36:19;99535.38;;;17.35;100.00
31761;BME280;18335;51.486;7.562;2023-11-19T10:38:52;99528.22;;;16.78;100.00
31761;BME280;18335;51.486;7.562;2023-11-19T10:41:29;99525.31;;;16.97;100.00
31761;BME280;18335;51.486;7.562;2023-11-19T10:44:00;99531.06;;;16.96;100.00
31761;BME280;18335;51.486;7.562;2023-11-19T10:46:37;99539.91;;;17.29;100.00
31761;BME280;18335;51.486;7.562;2023-11-19T10:49:05;99524.16;;;17.30;100.00
31761;BME280;18335;51.486;7.562;2023-11-19T10:51:33;99533.63;;;16.91;100.00
31761;BME280;18335;51.486;7.562;2023-11-19T10:54:02;99530.03;;;16.90;100.00
31761;BME280;18335;51.486;7.562;2023-11-19T10:56:31;99531.22;;;17.01;100.00
31761;BME280;18335;51.486;7.562;2023-11-19T10:58:59;99541.88;;;16.91;100.00
31761;BME280;18335;51.486;7.562;2023-11-19T11:01:27;99526.03;;;16.86;100.00
31761;BME280;18335;51.486;7.562;2023-11-19T11:04:02;99524.19;;;17.05;100.00
31761;BME280;18335;51.486;7.562;2023-11-19T11:06:30;99523.50;;;17.09;100.00
31761;BME280;18335;51.486;7.562;2023-11-19T11:08:57;99533.09;;;17.07;100.00
31761;BME280;18335;51.486;7.562;2023-11-19T11:11:24;99535.50;;;16.66;100.00
31761;BME280;18335;51.486;7.562;2023-11-19T11:13:53;99526.03;;;16.86;100.00
31761;BME280;18335;51.486;7.562;2023-11-19T11:16:22;99512.03;;;17.12;100.00
31761;BME280;18335;51.486;7.562;2023-11-19T11:18:51;99527.34;;;16.84;100.00
31761;BME280;18335;51.486;7.562;2023-11-19T11:21:22;99514.44;;;17.02;100.00
31761;BME280;18335;51.486;7.562;2023-11-19T11:27:13;99514.72;;;16.25;100.00
31761;BME280;18335;51.486;7.562;2023-11-19T11:29:50;99531.59;;;16.80;100.00
31761;BME280;18335;51.486;7.562;2023-11-19T11:32:25;99529.38;;;16.19;100.00
31761;BME280;18335;51.486;7.562;2023-11-19T11:35:18;99527.56;;;16.44;100.00
31761;BME280;18335;51.486;7.562;2023-11-19T11:37:57;99529.75;;;16.67;100.00
31761;BME280;18335;51.486;7.562;2023-11-19T11:40:27;99531.06;;;16.20;100.00
31761;BME280;18335;51.486;7.562;2023-11-19T11:42:54;99528.81;;;17.11;100.00
31761;BME280;18335;51.486;7.562;2023-11-19T11:45:35;99523.81;;;17.26;100.00
31761;BME280;18335;51.486;7.562;2023-11-19T11:48:20;99515.25;;;16.47;100.00
31761;BME280;18335;51.486;7.562;2023-11-19T11:50:49;99507.06;;;17.21;100.00
31761;BME280;18335;51.486;7.562;2023-11-19T11:53:19;99512.66;;;16.58;100.00
31761;BME280;18335;51.486;7.562;2023-11-19T11:55:58;99513.75;;;16.82;100.00
31761;BME280;18335;51.486;7.562;2023-11-19T11:58:29;99510.03;;;17.01;100.00
31761;BME280;18335;51.486;7.562;2023-11-19T12:01:01;99503.56;;;17.14;100.00
31761;BME280;18335;51.486;7.562;2023-11-19T12:03:29;99496.63;;;17.05;100.00
31761;BME280;18335;51.486;7.562;2023-11-19T12:05:57;99490.69;;;17.08;100.00
31761;BME280;18335;51.486;7.562;2023-11-19T12:08:28;99485.34;;;17.31;100.00
31761;BME280;18335;51.486;7.562;2023-11-19T12:10:57;99493.19;;;17.09;100.00
31761;BME280;18335;51.486;7.562;2023-11-19T12:13:52;99484.44;;;17.37;100.00
31761;BME280;18335;51.486;7.562;2023-11-19T12:16:19;99486.00;;;17.51;100.00
31761;BME280;18335;51.486;7.562;2023-11-19T12:18:47;99482.03;;;18.02;100.00
31761;BME280;18335;51.486;7.562;2023-11-19T12:21:27;99486.41;;;17.55;100.00
31761;BME280;18335;51.486;7.562;2023-11-19T12:23:57;99492.69;;;17.19;100.00
31761;BME280;18335;51.486;7.562;2023-11-19T12:26:37;99497.16;;;17.38;100.00
31761;BME280;18335;51.486;7.562;2023-11-19T12:29:04;99488.88;;;17.20;100.00
31761;BME280;18335;51.486;7.562;2023-11-19T12:31:32;99477.75;;;17.27;100.00
31761;BME280;18335;51.486;7.562;2023-11-19T12:34:05;99481.81;;;17.24;100.00
31761;BME280;18335;51.486;7.562;2023-11-19T12:36:32;99481.06;;;17.17;100.00
31761;BME280;18335;51.486;7.562;2023-11-19T12:39:00;99476.63;;;17.59;100.00
31761;BME280;18335;51.486;7.562;2023-11-19T12:41:29;99478.16;;;17.73;100.00
31761;BME280;18335;51.486;7.562;2023-11-19T12:44:09;99472.94;;;17.22;100.00
31761;BME280;18335;51.486;7.562;2023-11-19T12:46:35;99472.50;;;17.00;100.00
31761;BME280;18335;51.486;7.562;2023-11-19T12:49:02;99472.16;;;17.76;100.00
31761;BME280;18335;51.486;7.562;2023-11-19T12:51:31;99465.78;;;17.76;100.00
31761;BME280;18335;51.486;7.562;2023-11-19T12:54:00;99475.09;;;17.38;100.00
31761;BME280;18335;51.486;7.562;2023-11-19T12:56:27;99464.88;;;17.63;100.00
31761;BME280;18335;51.486;7.562;2023-11-19T12:58:55;99441.66;;;17.71;100.00